Time;durP1;ratioP1;P1;durP2;ratioP2;P2;SDS_P1;SDS_P2;PMS_P1;PMS_P2;Temp;Humidity;BMP_temperature;BMP_pressure;BME280_temperature;BME280_humidity;BME280_pressure;Samples;Min_cycle;Max_cycle;Signal;HPM_P1;HPM_P2
2022/07/09 00:01:18;;;;;;;5.63;1.98;;;22.90;99.90;;;;;;5045286;28;20403;-66
2022/07/09 00:03:45;;;;;;;2.60;1.33;;;23.00;99.80;;;;;;5011104;28;20037;-66
2022/07/09 00:06:13;;;;;;;3.70;1.73;;;23.00;99.90;;;;;;5028470;28;20128;-67
2022/07/09 00:08:40;;;;;;;2.30;1.58;;;23.00;99.80;;;;;;5029262;28;20132;-66
2022/07/09 00:11:08;;;;;;;3.35;1.40;;;23.00;99.80;;;;;;5028807;28;20045;-66
2022/07/09 00:13:36;;;;;;;2.72;1.75;;;23.00;99.70;;;;;;5045330;28;20045;-68
2022/07/09 00:16:03;;;;;;;2.55;1.83;;;23.10;99.70;;;;;;5028531;28;20057;-66
2022/07/09 00:18:31;;;;;;;3.20;1.77;;;23.10;99.80;;;;;;5045410;28;20125;-66
2022/07/09 00:20:59;;;;;;;4.13;1.90;;;23.00;99.80;;;;;;5028768;28;20152;-65
2022/07/09 00:23:26;;;;;;;3.08;1.55;;;23.00;99.60;;;;;;5030216;28;20048;-66
2022/07/09 00:25:54;;;;;;;3.50;1.60;;;23.00;99.40;;;;;;5028378;28;20463;-75
2022/07/09 00:28:22;;;;;;;3.90;1.50;;;23.00;99.20;;;;;;5028625;28;20092;-68
2022/07/09 00:30:49;;;;;;;3.22;1.50;;;23.00;99.20;;;;;;5012257;28;20061;-66
2022/07/09 00:33:17;;;;;;;6.00;1.30;;;23.00;99.30;;;;;;5012301;28;20064;-67
2022/07/09 00:35:45;;;;;;;4.28;1.33;;;23.00;99.40;;;;;;5045125;28;20830;-66
2022/07/09 00:38:12;;;;;;;3.85;1.73;;;23.00;99.50;;;;;;5029039;28;20155;-66
2022/07/09 00:40:40;;;;;;;2.33;1.45;;;23.00;99.60;;;;;;5028759;28;20045;-65
2022/07/09 00:43:21;;;;;;;4.38;1.67;;;23.00;99.60;;;;;;5045103;28;20096;-67
2022/07/09 00:45:49;;;;;;;4.25;1.80;;;22.90;99.60;;;;;;5029999;28;20046;-68
2022/07/09 00:48:19;;;;;;;2.25;1.35;;;23.00;99.60;;;;;;5028793;28;20534;-66
2022/07/09 00:50:47;;;;;;;1.95;1.13;;;23.00;99.50;;;;;;5048145;28;20073;-66
2022/07/09 00:53:17;;;;;;;5.30;1.65;;;22.90;99.30;;;;;;5046180;28;20099;-65
2022/07/09 00:55:47;;;;;;;6.15;2.03;;;22.90;99.00;;;;;;5031986;28;20060;-69
2022/07/09 00:58:19;;;;;;;3.88;1.30;;;22.90;98.90;;;;;;5048369;28;20472;-66
2022/07/09 01:00:47;;;;;;;2.55;1.80;;;22.90;99.00;;;;;;5048783;28;20045;-66
2022/07/09 01:03:14;;;;;;;3.50;1.58;;;22.90;98.90;;;;;;5031885;28;20045;-68
2022/07/09 01:05:42;;;;;;;3.72;1.50;;;23.00;98.90;;;;;;5031859;28;20470;-66
2022/07/09 01:08:10;;;;;;;5.93;1.73;;;23.00;98.70;;;;;;5048049;28;20053;-67
2022/07/09 01:10:38;;;;;;;4.13;1.65;;;23.00;98.50;;;;;;5015387;28;20056;-68
2022/07/09 01:13:06;;;;;;;6.40;1.55;;;23.00;98.40;;;;;;5032011;28;20046;-66
2022/07/09 01:15:34;;;;;;;4.85;2.17;;;22.90;98.30;;;;;;5048475;28;20057;-65
2022/07/09 01:18:02;;;;;;;5.75;2.58;;;23.00;98.30;;;;;;5031619;28;20714;-66
2022/07/09 01:20:31;;;;;;;4.57;1.40;;;23.00;98.20;;;;;;5031522;28;20123;-66
2022/07/09 01:22:59;;;;;;;2.45;1.30;;;23.00;98.20;;;;;;5015382;28;20052;-66
2022/07/09 01:25:38;;;;;;;3.50;1.80;;;23.00;98.20;;;;;;5031465;28;20041;-66
2022/07/09 01:28:07;;;;;;;1.92;1.25;;;23.00;98.20;;;;;;5015262;28;20050;-65
2022/07/09 01:30:36;;;;;;;2.53;1.00;;;23.00;98.30;;;;;;5047758;28;20415;-66
2022/07/09 01:33:04;;;;;;;7.10;1.45;;;23.00;98.20;;;;;;5015273;28;20680;-66
2022/07/09 01:35:32;;;;;;;4.72;1.40;;;23.00;98.20;;;;;;5014934;28;20462;-69
2022/07/09 01:37:59;;;;;;;3.05;1.10;;;23.00;98.20;;;;;;5014813;28;20053;-67
2022/07/09 01:40:27;;;;;;;2.75;1.30;;;23.00;98.40;;;;;;5031510;28;20045;-66
2022/07/09 01:42:55;;;;;;;5.95;1.52;;;23.00;98.40;;;;;;5032441;28;20065;-65
2022/07/09 01:45:22;;;;;;;1.90;1.08;;;23.00;98.10;;;;;;5047708;28;20052;-66
2022/07/09 01:47:50;;;;;;;1.85;1.05;;;23.00;98.20;;;;;;5047512;28;20141;-66
2022/07/09 01:50:17;;;;;;;2.10;1.20;;;23.00;98.10;;;;;;5030715;28;20046;-66
2022/07/09 01:52:45;;;;;;;4.22;1.20;;;23.00;98.10;;;;;;5029640;28;20112;-67
2022/07/09 01:55:13;;;;;;;2.13;1.05;;;23.00;97.90;;;;;;5011390;28;20100;-68
2022/07/09 01:57:40;;;;;;;4.20;1.10;;;23.00;97.50;;;;;;5011029;28;20054;-67
2022/07/09 02:00:08;;;;;;;6.63;1.92;;;23.00;97.20;;;;;;4994194;28;20084;-65
2022/07/09 02:02:39;;;;;;;2.92;1.10;;;23.00;96.90;;;;;;5027068;28;20042;-68
2022/07/09 02:05:07;;;;;;;2.70;1.05;;;22.90;96.50;;;;;;5010864;28;20046;-66
2022/07/09 02:07:35;;;;;;;3.30;1.30;;;22.90;96.30;;;;;;4994712;28;20057;-69
2022/07/09 02:10:06;;;;;;;3.63;2.25;;;22.90;96.10;;;;;;5010790;28;20096;-66
2022/07/09 02:12:34;;;;;;;1.88;1.05;;;22.90;96.00;;;;;;5027516;28;20060;-66
2022/07/09 02:15:01;;;;;;;2.55;1.30;;;22.90;96.00;;;;;;5010991;28;20049;-66
2022/07/09 02:17:29;;;;;;;3.45;1.48;;;23.00;96.00;;;;;;5027169;28;20093;-65
2022/07/09 02:19:57;;;;;;;4.13;1.50;;;23.00;96.00;;;;;;4994124;28;20057;-66
2022/07/09 02:22:24;;;;;;;5.28;1.95;;;23.00;96.10;;;;;;5010771;28;20507;-66
2022/07/09 02:24:52;;;;;;;2.75;1.58;;;23.00;96.20;;;;;;5011889;28;20071;-66
2022/07/09 02:27:19;;;;;;;4.00;1.52;;;23.00;96.30;;;;;;5010741;28;20058;-66
2022/07/09 02:29:47;;;;;;;7.70;2.45;;;23.00;96.30;;;;;;5010396;28;20189;-69
2022/07/09 02:32:14;;;;;;;3.67;1.50;;;22.90;96.60;;;;;;5010309;28;20056;-66
2022/07/09 02:34:42;;;;;;;7.88;3.08;;;22.90;96.70;;;;;;5010405;28;20185;-66
2022/07/09 02:37:09;;;;;;;5.07;3.05;;;22.90;96.60;;;;;;5010786;28;20045;-68
2022/07/09 02:39:37;;;;;;;11.50;2.95;;;22.90;96.20;;;;;;5010648;28;20496;-65
2022/07/09 02:42:05;;;;;;;7.55;2.80;;;22.90;95.50;;;;;;5021821;28;20380;-66
2022/07/09 02:44:32;;;;;;;5.25;2.95;;;22.90;95.20;;;;;;5030111;28;20529;-67
2022/07/09 02:47:00;;;;;;;5.13;2.95;;;23.00;95.00;;;;;;5030299;28;20569;-65
2022/07/09 02:49:27;;;;;;;5.57;2.80;;;22.90;94.70;;;;;;5013698;28;20060;-66
2022/07/09 02:51:57;;;;;;;4.40;3.33;;;23.00;94.70;;;;;;5030847;28;20586;-69
2022/07/09 02:54:25;;;;;;;5.68;3.15;;;23.10;94.70;;;;;;5029998;28;20042;-68
2022/07/09 02:56:52;;;;;;;4.85;3.10;;;23.10;94.70;;;;;;5030871;28;20050;-69
2022/07/09 02:59:20;;;;;;;6.53;4.10;;;23.20;94.60;;;;;;5013918;28;20045;-65
2022/07/09 03:01:48;;;;;;;5.30;2.40;;;23.20;94.50;;;;;;5025844;28;20427;-66
2022/07/09 03:04:15;;;;;;;4.05;2.97;;;23.20;94.30;;;;;;5029256;28;20581;-67
2022/07/09 03:06:43;;;;;;;4.53;2.80;;;23.30;94.50;;;;;;5009933;28;20069;-68
2022/07/09 03:09:10;;;;;;;5.05;3.55;;;23.30;94.50;;;;;;5026466;28;20046;-70
2022/07/09 03:11:38;;;;;;;6.18;2.72;;;23.40;94.70;;;;;;5025802;28;20504;-66
2022/07/09 03:14:06;;;;;;;5.88;3.63;;;23.30;94.80;;;;;;5009561;28;20136;-66
2022/07/09 03:16:33;;;;;;;10.82;3.25;;;23.30;94.90;;;;;;5010046;28;20054;-67
2022/07/09 03:19:01;;;;;;;7.20;3.20;;;23.40;95.00;;;;;;5011055;28;20045;-66
2022/07/09 03:21:28;;;;;;;5.60;3.10;;;23.40;95.00;;;;;;5010834;28;20045;-66
2022/07/09 03:23:56;;;;;;;4.15;2.75;;;23.40;95.00;;;;;;5009302;28;20512;-69
2022/07/09 03:26:23;;;;;;;4.78;2.58;;;23.40;95.00;;;;;;5009983;28;20049;-66
2022/07/09 03:28:51;;;;;;;5.03;2.88;;;23.30;94.90;;;;;;5026006;28;20060;-67
2022/07/09 03:31:18;;;;;;;5.22;2.88;;;23.30;94.80;;;;;;5009759;28;20045;-65
2022/07/09 03:33:47;;;;;;;6.13;2.83;;;23.30;94.90;;;;;;5009703;28;20132;-67
2022/07/09 03:36:18;;;;;;;5.53;2.83;;;23.30;95.00;;;;;;5009661;28;20050;-67
2022/07/09 03:38:46;;;;;;;4.40;3.22;;;23.30;95.10;;;;;;5012749;28;20068;-67
2022/07/09 03:41:13;;;;;;;4.95;2.95;;;23.40;95.40;;;;;;5029663;28;20045;-66
2022/07/09 03:43:41;;;;;;;8.05;3.58;;;23.40;95.50;;;;;;5029385;28;20054;-65
2022/07/09 03:46:08;;;;;;;3.67;2.95;;;23.40;95.70;;;;;;5028754;28;20741;-66
2022/07/09 03:48:36;;;;;;;4.95;2.70;;;23.50;95.90;;;;;;5029691;28;20065;-66
2022/07/09 03:51:04;;;;;;;4.47;2.80;;;23.50;96.10;;;;;;5012657;28;20049;-69
2022/07/09 03:53:32;;;;;;;4.70;2.88;;;23.50;96.20;;;;;;5012985;28;20137;-66
2022/07/09 03:56:01;;;;;;;6.47;3.00;;;23.60;96.30;;;;;;5012864;28;20092;-68
2022/07/09 03:58:28;;;;;;;5.05;3.28;;;23.60;96.40;;;;;;5029219;28;20499;-66
2022/07/09 04:00:56;;;;;;;3.95;2.85;;;23.60;96.60;;;;;;5030361;28;20442;-66
2022/07/09 04:03:24;;;;;;;3.92;2.58;;;23.60;96.80;;;;;;5029088;28;20042;-67
2022/07/09 04:05:51;;;;;;;5.63;3.33;;;23.70;97.10;;;;;;5029498;28;20053;-68
2022/07/09 04:08:19;;;;;;;4.25;2.92;;;23.70;97.20;;;;;;5028774;28;20044;-66
2022/07/09 04:10:46;;;;;;;5.93;3.30;;;23.70;97.30;;;;;;5012694;28;20045;-66
2022/07/09 04:13:14;;;;;;;9.93;3.22;;;23.70;97.30;;;;;;5012449;28;20043;-66
2022/07/09 04:15:41;;;;;;;6.78;3.33;;;23.70;97.30;;;;;;4996534;28;20049;-68
2022/07/09 04:18:09;;;;;;;4.63;2.83;;;23.80;97.30;;;;;;5028614;28;20613;-67
2022/07/09 04:20:36;;;;;;;5.95;3.10;;;23.90;97.30;;;;;;5012497;28;20056;-69
2022/07/09 04:23:04;;;;;;;5.20;3.08;;;24.00;97.40;;;;;;5013161;28;20144;-66
2022/07/09 04:25:32;;;;;;;4.75;2.85;;;24.10;97.40;;;;;;5032909;28;20045;-65
2022/07/09 04:27:59;;;;;;;5.90;3.80;;;24.30;97.30;;;;;;5033594;28;20049;-67
2022/07/09 04:30:27;;;;;;;5.70;3.08;;;24.40;97.20;;;;;;5033520;28;20076;-66
2022/07/09 04:32:55;;;;;;;5.55;3.00;;;24.40;97.30;;;;;;5000069;28;20573;-65
2022/07/09 04:35:22;;;;;;;9.13;3.58;;;24.50;97.30;;;;;;5033805;28;20128;-66
2022/07/09 04:37:50;;;;;;;5.20;3.13;;;24.60;97.20;;;;;;5016536;28;20050;-66
2022/07/09 04:40:17;;;;;;;5.18;3.03;;;24.60;97.10;;;;;;5031632;28;20041;-67
2022/07/09 04:42:45;;;;;;;5.32;3.88;;;24.80;97.00;;;;;;5015599;28;20146;-66
2022/07/09 04:45:12;;;;;;;4.47;3.28;;;24.90;96.90;;;;;;5015587;28;20041;-65
2022/07/09 04:47:40;;;;;;;4.35;3.00;;;25.00;96.70;;;;;;5032313;28;20503;-68
2022/07/09 04:50:08;;;;;;;5.30;3.25;;;25.10;96.50;;;;;;5031017;28;20052;-66
2022/07/09 04:52:35;;;;;;;4.13;2.58;;;25.10;96.30;;;;;;5032400;28;20484;-66
2022/07/09 04:55:04;;;;;;;4.30;2.88;;;25.20;96.20;;;;;;5031675;28;20046;-66
2022/07/09 04:57:32;;;;;;;6.38;2.85;;;25.30;96.20;;;;;;5022979;28;20116;-71
2022/07/09 05:00:01;;;;;;;6.55;2.83;;;25.50;96.00;;;;;;5014040;28;20060;-66
2022/07/09 05:02:28;;;;;;;3.70;2.30;;;25.70;95.90;;;;;;5027235;28;20124;-67
2022/07/09 05:04:56;;;;;;;5.78;2.65;;;25.80;95.80;;;;;;4997426;28;20442;-68
2022/07/09 05:07:24;;;;;;;5.88;3.63;;;25.80;95.70;;;;;;5030303;28;20057;-66
2022/07/09 05:09:51;;;;;;;5.70;3.17;;;26.00;95.70;;;;;;5031865;28;20830;-66
2022/07/09 05:12:19;;;;;;;4.05;2.70;;;26.00;95.50;;;;;;5006961;28;20057;-71
2022/07/09 05:14:46;;;;;;;4.28;2.60;;;26.10;95.60;;;;;;4994678;28;20050;-66
2022/07/09 05:17:14;;;;;;;4.72;3.28;;;26.20;95.60;;;;;;5011119;28;20126;-65
2022/07/09 05:19:42;;;;;;;7.57;2.90;;;26.20;95.40;;;;;;5011975;28;20052;-66
2022/07/09 05:22:09;;;;;;;4.28;3.13;;;26.20;95.20;;;;;;5011458;28;20108;-68
2022/07/09 05:24:37;;;;;;;5.40;3.35;;;26.30;95.00;;;;;;4994549;28;20151;-65
2022/07/09 05:27:05;;;;;;;8.15;3.20;;;26.20;94.20;;;;;;5015094;28;20046;-68
2022/07/09 05:29:32;;;;;;;4.18;2.78;;;26.30;94.20;;;;;;5046690;28;20048;-74
2022/07/09 05:32:00;;;;;;;15.75;3.83;;;26.40;93.60;;;;;;5027490;28;20073;-66
2022/07/09 05:34:28;;;;;;;5.78;3.70;;;26.50;93.40;;;;;;5032165;28;20042;-65
2022/07/09 05:36:56;;;;;;;3.95;2.83;;;26.60;93.30;;;;;;5010880;28;20108;-66
2022/07/09 05:39:23;;;;;;;4.40;2.60;;;26.80;93.20;;;;;;5027911;28;20447;-66
2022/07/09 05:41:51;;;;;;;3.63;2.45;;;26.90;92.80;;;;;;4995492;28;20038;-66
2022/07/09 05:44:18;;;;;;;6.63;3.15;;;27.00;92.10;;;;;;5012403;28;20128;-68
2022/07/09 05:46:49;;;;;;;11.18;4.95;;;27.10;91.60;;;;;;5011596;28;20049;-65
2022/07/09 05:49:16;;;;;;;3.22;2.90;;;27.20;91.20;;;;;;5027832;28;20038;-67
2022/07/09 05:51:44;;;;;;;4.45;2.63;;;27.40;91.30;;;;;;5011222;28;20053;-68
2022/07/09 05:54:11;;;;;;;5.45;2.78;;;27.50;90.90;;;;;;5010928;28;20049;-68
2022/07/09 05:56:40;;;;;;;4.05;2.90;;;27.60;90.70;;;;;;5011411;28;20456;-69
2022/07/09 05:59:08;;;;;;;4.18;3.35;;;27.60;90.60;;;;;;5027575;28;20089;-69
2022/07/09 06:01:39;;;;;;;9.40;3.88;;;27.70;90.70;;;;;;5011008;28;20052;-68
2022/07/09 06:04:07;;;;;;;5.55;3.25;;;27.80;90.60;;;;;;5011049;28;20058;-69
2022/07/09 06:06:35;;;;;;;4.57;3.00;;;27.80;90.30;;;;;;5011099;28;20061;-69
2022/07/09 06:09:03;;;;;;;4.38;2.83;;;28.00;90.20;;;;;;5011027;28;20403;-69
2022/07/09 06:11:30;;;;;;;3.63;3.00;;;28.00;90.00;;;;;;5011101;28;20120;-69
2022/07/09 06:13:58;;;;;;;4.88;3.17;;;28.10;88.90;;;;;;5027192;28;20503;-67
2022/07/09 06:16:25;;;;;;;6.03;3.33;;;28.10;88.00;;;;;;5012250;28;20044;-68
2022/07/09 06:18:53;;;;;;;3.55;2.65;;;28.20;87.50;;;;;;5010720;28;20068;-70
2022/07/09 06:21:21;;;;;;;5.32;3.30;;;28.20;87.30;;;;;;5027128;28;20041;-68
2022/07/09 06:23:48;;;;;;;8.68;3.65;;;28.10;86.10;;;;;;5027059;28;20791;-70
2022/07/09 06:26:16;;;;;;;4.22;3.10;;;28.20;87.00;;;;;;5019571;28;20049;-70
2022/07/09 06:28:43;;;;;;;4.95;3.15;;;28.20;86.80;;;;;;5030026;28;20041;-66
2022/07/09 06:31:11;;;;;;;4.78;3.00;;;28.30;86.30;;;;;;5031539;28;20084;-65
2022/07/09 06:33:39;;;;;;;3.85;3.25;;;28.30;86.20;;;;;;5030186;28;20037;-65
2022/07/09 06:36:06;;;;;;;4.82;3.17;;;28.30;85.80;;;;;;5031217;28;20049;-67
2022/07/09 06:39:44;;;;;;;4.68;3.67;;;28.20;85.40;;;;;;5046797;28;20041;-67
2022/07/09 06:41:22;;;;;;;4.30;3.22;;;28.30;86.00;;;;;;5030139;28;20438;-66
2022/07/09 06:43:50;;;;;;;4.80;3.70;;;28.20;85.10;;;;;;5046658;28;20053;-68
2022/07/09 06:46:17;;;;;;;4.18;3.42;;;28.30;84.00;;;;;;5030394;28;20045;-65
2022/07/09 06:48:45;;;;;;;4.47;3.45;;;28.40;84.80;;;;;;5031089;28;20095;-66
2022/07/09 06:51:13;;;;;;;4.50;3.42;;;28.40;84.40;;;;;;5030054;28;20041;-65
2022/07/09 06:53:40;;;;;;;4.43;3.97;;;28.40;83.70;;;;;;5031151;28;20050;-67
2022/07/09 06:56:08;;;;;;;6.00;3.78;;;28.50;82.70;;;;;;5029599;28;20042;-67
2022/07/09 06:58:36;;;;;;;6.70;3.38;;;28.40;83.10;;;;;;5046164;28;20510;-66
2022/07/09 07:01:03;;;;;;;5.68;3.67;;;28.50;83.80;;;;;;5013706;28;20515;-67
2022/07/09 07:03:31;;;;;;;4.60;3.72;;;28.60;84.30;;;;;;5013157;28;20133;-66
2022/07/09 07:05:59;;;;;;;5.57;3.88;;;28.60;83.20;;;;;;5029820;28;20107;-68
2022/07/09 07:08:27;;;;;;;4.50;3.78;;;28.80;83.70;;;;;;5029573;28;20069;-65
2022/07/09 07:10:54;;;;;;;6.22;3.60;;;28.90;84.00;;;;;;5030817;28;20446;-65
2022/07/09 07:13:22;;;;;;;6.63;3.35;;;29.00;84.60;;;;;;5030737;28;20053;-67
2022/07/09 07:15:50;;;;;;;4.65;3.75;;;29.00;82.60;;;;;;5027739;28;20127;-66
2022/07/09 07:18:18;;;;;;;6.10;4.10;;;29.00;82.20;;;;;;5045711;28;20048;-66
2022/07/09 07:20:46;;;;;;;5.47;3.65;;;28.90;83.30;;;;;;5030744;28;20124;-66
2022/07/09 07:23:15;;;;;;;4.25;3.85;;;28.80;82.30;;;;;;5029181;28;20047;-67
2022/07/09 07:25:43;;;;;;;6.50;3.90;;;28.80;82.80;;;;;;5029447;28;20099;-66
2022/07/09 07:28:11;;;;;;;5.78;3.95;;;28.90;82.80;;;;;;5045884;28;20068;-66
2022/07/09 07:30:39;;;;;;;5.60;3.78;;;29.00;82.00;;;;;;5029058;28;20152;-68
2022/07/09 07:33:06;;;;;;;5.68;4.30;;;29.20;82.60;;;;;;5029364;28;20484;-66
2022/07/09 07:35:34;;;;;;;5.20;3.80;;;29.10;81.90;;;;;;5029228;28;20549;-66
2022/07/09 07:38:01;;;;;;;7.47;4.07;;;29.10;80.00;;;;;;5030401;28;20041;-66
2022/07/09 07:40:29;;;;;;;5.78;3.40;;;29.10;79.70;;;;;;5032016;28;20049;-66
2022/07/09 07:42:57;;;;;;;5.53;3.92;;;29.10;79.50;;;;;;5029581;28;20038;-65
2022/07/09 07:45:24;;;;;;;7.30;4.00;;;29.00;79.80;;;;;;5045860;28;20069;-66
2022/07/09 07:47:54;;;;;;;4.43;3.35;;;29.10;80.60;;;;;;5029330;28;20092;-65
2022/07/09 07:50:22;;;;;;;4.70;4.03;;;29.10;80.50;;;;;;5029142;28;20050;-66
2022/07/09 07:52:50;;;;;;;4.28;2.97;;;29.30;80.50;;;;;;5029423;28;20037;-66
2022/07/09 07:55:18;;;;;;;5.10;3.83;;;29.40;81.00;;;;;;5029056;28;20056;-66
2022/07/09 07:57:45;;;;;;;4.90;4.38;;;29.40;80.60;;;;;;5029538;28;20045;-66
2022/07/09 08:00:13;;;;;;;4.55;3.72;;;29.50;80.50;;;;;;5033156;28;20049;-66
2022/07/09 08:02:42;;;;;;;6.13;4.25;;;29.50;80.00;;;;;;5032634;28;20100;-66
2022/07/09 08:05:10;;;;;;;5.40;3.85;;;29.70;80.20;;;;;;5033088;28;20037;-66
2022/07/09 08:07:38;;;;;;;5.43;3.55;;;29.40;79.00;;;;;;5032938;28;20045;-67
2022/07/09 08:10:06;;;;;;;5.75;4.15;;;29.50;80.20;;;;;;5032891;28;20076;-65
2022/07/09 08:12:34;;;;;;;5.68;3.95;;;29.50;78.80;;;;;;5033091;28;20077;-66
2022/07/09 08:15:02;;;;;;;4.60;3.70;;;29.40;78.60;;;;;;5030092;28;20764;-65
2022/07/09 08:17:30;;;;;;;7.65;4.13;;;29.40;79.80;;;;;;5049459;28;20099;-66
2022/07/09 08:19:57;;;;;;;4.25;3.60;;;29.60;79.20;;;;;;5033633;28;20049;-66
2022/07/09 08:22:25;;;;;;;4.65;4.15;;;29.60;75.80;;;;;;5032730;28;20492;-67
2022/07/09 08:24:53;;;;;;;5.10;3.63;;;29.60;75.00;;;;;;5032926;28;20048;-66
2022/07/09 08:27:20;;;;;;;6.18;4.18;;;29.50;77.50;;;;;;5032981;28;20041;-66
2022/07/09 08:29:51;;;;;;;7.63;4.47;;;29.40;77.40;;;;;;5032439;28;20143;-65
2022/07/09 08:32:18;;;;;;;5.38;4.45;;;29.40;77.60;;;;;;5015993;28;20407;-66
2022/07/09 08:34:46;;;;;;;9.45;4.20;;;29.40;78.70;;;;;;5033749;28;20493;-66
2022/07/09 08:37:13;;;;;;;6.28;4.13;;;29.40;79.40;;;;;;5033747;28;20045;-67
2022/07/09 08:39:41;;;;;;;4.82;4.00;;;29.50;78.00;;;;;;5033791;28;20050;-66
2022/07/09 08:42:10;;;;;;;5.38;3.72;;;29.50;77.00;;;;;;5032291;28;20041;-66
2022/07/09 08:44:39;;;;;;;7.53;4.22;;;29.70;76.60;;;;;;5032193;28;20063;-66
2022/07/09 08:47:07;;;;;;;8.75;4.38;;;29.60;76.40;;;;;;5031977;28;20806;-66
2022/07/09 08:49:37;;;;;;;6.95;4.63;;;29.60;77.50;;;;;;5015942;28;20049;-66
2022/07/09 08:52:06;;;;;;;6.80;4.05;;;29.70;77.90;;;;;;5032132;28;20099;-68
2022/07/09 08:54:39;;;;;;;5.22;3.65;;;29.70;78.40;;;;;;5032175;28;20049;-66
2022/07/09 08:57:07;;;;;;;11.15;4.63;;;29.80;78.30;;;;;;5032068;28;20041;-68
2022/07/09 08:59:35;;;;;;;6.20;3.40;;;29.70;78.00;;;;;;5033521;28;20045;-69
2022/07/09 09:02:08;;;;;;;5.22;3.38;;;29.60;77.60;;;;;;5032142;28;20183;-66
2022/07/09 09:04:39;;;;;;;7.95;3.50;;;29.50;78.00;;;;;;5033443;28;20124;-67
2022/07/09 09:07:14;;;;;;;7.00;3.47;;;29.70;78.20;;;;;;5033459;28;20123;-67
2022/07/09 09:09:42;;;;;;;4.07;3.33;;;29.90;77.70;;;;;;5032206;28;20398;-67
2022/07/09 09:12:11;;;;;;;4.93;3.47;;;29.90;76.70;;;;;;5015032;28;20552;-66
2022/07/09 09:14:39;;;;;;;5.50;3.60;;;30.00;76.00;;;;;;5029609;28;20068;-67
2022/07/09 09:17:14;;;;;;;7.75;3.50;;;30.00;76.80;;;;;;5015525;28;20103;-66
2022/07/09 09:19:42;;;;;;;4.03;3.17;;;30.00;77.50;;;;;;5031893;28;20073;-66
2022/07/09 09:22:09;;;;;;;5.93;3.53;;;30.10;77.60;;;;;;5047889;28;20052;-67
2022/07/09 09:24:37;;;;;;;3.63;3.08;;;30.10;76.60;;;;;;5047985;28;20553;-66
2022/07/09 09:27:05;;;;;;;4.22;3.03;;;29.90;76.00;;;;;;5031839;28;20050;-66
2022/07/09 09:29:34;;;;;;;6.10;3.40;;;29.90;75.70;;;;;;5047719;28;20064;-67
2022/07/09 09:32:10;;;;;;;5.10;3.08;;;30.00;75.50;;;;;;5031473;28;20054;-67
2022/07/09 09:34:41;;;;;;;5.63;3.20;;;30.10;75.70;;;;;;5031638;28;20083;-66
2022/07/09 09:37:10;;;;;;;5.60;3.42;;;30.00;76.10;;;;;;5048113;28;20184;-68
2022/07/09 09:39:38;;;;;;;5.47;3.28;;;29.90;75.50;;;;;;5015339;28;20053;-66
2022/07/09 09:42:08;;;;;;;4.82;3.63;;;29.90;75.10;;;;;;5047611;28;20157;-66
2022/07/09 09:44:39;;;;;;;5.10;3.90;;;29.80;76.10;;;;;;5014748;28;20049;-66
2022/07/09 09:47:07;;;;;;;8.60;4.10;;;29.70;77.40;;;;;;5014909;28;20053;-67
2022/07/09 09:49:37;;;;;;;5.13;4.00;;;29.60;78.00;;;;;;5031274;28;20061;-69
2022/07/09 09:52:07;;;;;;;5.72;3.92;;;29.80;77.80;;;;;;5014945;28;20125;-67
2022/07/09 09:54:37;;;;;;;5.97;4.05;;;29.90;77.70;;;;;;5047663;28;20454;-67
2022/07/09 09:57:07;;;;;;;7.90;4.43;;;30.00;76.80;;;;;;5047458;28;20107;-69
2022/07/09 09:59:37;;;;;;;9.50;3.88;;;30.00;76.60;;;;;;5030998;28;20119;-67
2022/07/09 10:02:06;;;;;;;5.40;3.85;;;29.80;77.10;;;;;;5014345;28;20057;-67
2022/07/09 10:04:36;;;;;;;6.82;4.30;;;29.80;78.10;;;;;;5028275;28;20049;-66
2022/07/09 10:07:05;;;;;;;6.63;4.03;;;29.80;78.10;;;;;;5030470;28;20053;-68
2022/07/09 10:09:32;;;;;;;5.70;4.22;;;29.80;78.70;;;;;;5030318;28;20798;-67
2022/07/09 10:12:00;;;;;;;8.40;4.68;;;29.60;78.60;;;;;;5030071;28;20096;-66
2022/07/09 10:14:37;;;;;;;8.50;4.13;;;29.70;78.60;;;;;;5013511;28;20050;-67
2022/07/09 10:17:15;;;;;;;9.57;4.20;;;29.60;78.70;;;;;;5030348;28;20501;-66
2022/07/09 10:19:57;;;;;;;9.05;3.78;;;29.70;78.50;;;;;;5013964;28;20045;-68
2022/07/09 10:22:36;;;;;;;13.20;4.82;;;29.90;79.00;;;;;;5029672;28;20045;-69
2022/07/09 10:25:05;;;;;;;7.20;4.47;;;29.90;79.20;;;;;;5030070;28;20095;-66
2022/07/09 10:27:49;;;;;;;7.45;3.85;;;30.00;79.30;;;;;;5029744;28;20041;-66
2022/07/09 10:30:33;;;;;;;4.45;3.60;;;30.00;78.60;;;;;;5030332;28;20053;-66
2022/07/09 10:33:03;;;;;;;4.85;3.35;;;30.10;79.00;;;;;;5030990;28;20478;-67
2022/07/09 10:35:31;;;;;;;5.05;3.38;;;30.10;78.70;;;;;;4996627;28;20115;-68
2022/07/09 10:37:59;;;;;;;4.50;3.85;;;30.10;78.80;;;;;;5029305;28;20046;-67
2022/07/09 10:40:37;;;;;;;5.78;3.60;;;29.90;78.20;;;;;;5029253;28;20501;-66
2022/07/09 10:43:04;;;;;;;7.10;3.92;;;29.80;79.30;;;;;;5029723;28;20045;-66
2022/07/09 10:45:44;;;;;;;4.13;3.30;;;29.70;79.30;;;;;;5029250;28;20041;-67
2022/07/09 10:48:14;;;;;;;5.07;3.17;;;29.90;80.00;;;;;;4996874;28;20060;-67
2022/07/09 10:50:44;;;;;;;4.88;3.20;;;29.90;79.20;;;;;;5028997;28;20075;-68
2022/07/09 10:53:12;;;;;;;3.55;2.85;;;30.00;78.30;;;;;;5030616;28;20049;-66
2022/07/09 10:55:47;;;;;;;4.18;3.20;;;30.00;77.90;;;;;;5029629;28;20050;-69
2022/07/09 10:58:19;;;;;;;6.13;3.15;;;29.90;76.00;;;;;;5030032;28;20059;-67
2022/07/09 11:01:02;;;;;;;6.90;3.10;;;29.90;77.90;;;;;;5029702;28;20140;-66
2022/07/09 11:03:30;;;;;;;5.93;3.33;;;29.90;78.80;;;;;;5029271;28;20048;-66
2022/07/09 11:05:58;;;;;;;6.32;4.00;;;29.90;77.60;;;;;;5030038;28;20511;-66
2022/07/09 11:08:26;;;;;;;5.15;3.33;;;29.90;77.40;;;;;;5012405;28;20049;-67
2022/07/09 11:10:53;;;;;;;10.35;5.20;;;29.90;75.10;;;;;;5028954;28;20053;-67
2022/07/09 11:13:28;;;;;;;7.00;3.90;;;29.70;75.10;;;;;;5030106;28;20053;-66
2022/07/09 11:16:02;;;;;;;4.97;3.95;;;29.50;75.80;;;;;;5028771;28;20053;-67
2022/07/09 11:18:30;;;;;;;4.80;3.75;;;29.40;77.10;;;;;;5029978;28;20045;-66
2022/07/09 11:20:58;;;;;;;4.70;3.70;;;29.30;76.60;;;;;;5028958;28;20044;-66
2022/07/09 11:23:26;;;;;;;15.57;5.05;;;29.20;78.20;;;;;;5029563;28;20558;-69
2022/07/09 11:25:53;;;;;;;8.80;3.78;;;29.30;80.80;;;;;;5029570;28;20053;-66
2022/07/09 11:28:26;;;;;;;5.63;4.50;;;29.40;82.20;;;;;;5029220;28;20418;-67
2022/07/09 11:31:02;;;;;;;7.10;4.32;;;29.50;84.10;;;;;;5029717;28;20085;-65
2022/07/09 11:36:18;;;;;;;8.23;5.30;;;29.60;83.20;;;;;;5029539;28;20083;-66
2022/07/09 11:38:53;;;;;;;10.80;4.93;;;29.60;84.20;;;;;;5029551;28;20053;-66
2022/07/09 11:41:21;;;;;;;8.38;5.25;;;29.60;83.70;;;;;;5029442;28;20041;-67
2022/07/09 11:43:50;;;;;;;7.88;5.05;;;29.60;83.90;;;;;;5030316;28;20120;-66
2022/07/09 11:46:21;;;;;;;10.85;5.85;;;29.60;84.60;;;;;;5029191;28;20124;-65
2022/07/09 11:48:54;;;;;;;6.78;5.00;;;29.60;84.80;;;;;;5044106;28;20037;-64
2022/07/09 11:51:27;;;;;;;11.32;5.22;;;29.60;84.70;;;;;;5030047;28;20057;-68
2022/07/09 11:53:55;;;;;;;12.73;5.65;;;29.60;85.30;;;;;;4996785;28;20080;-69
2022/07/09 11:56:23;;;;;;;9.23;6.03;;;29.70;85.40;;;;;;5029427;28;20095;-67
2022/07/09 11:58:52;;;;;;;9.23;6.53;;;29.70;85.30;;;;;;5045824;28;20052;-66
2022/07/09 12:01:22;;;;;;;7.95;5.05;;;29.70;85.00;;;;;;5029589;28;20087;-66
2022/07/09 12:03:50;;;;;;;17.48;9.55;;;29.60;84.40;;;;;;5045775;28;20132;-66
2022/07/09 12:06:18;;;;;;;7.57;5.70;;;29.50;82.60;;;;;;5012810;28;20063;-66
2022/07/09 12:08:45;;;;;;;7.82;5.10;;;29.50;82.80;;;;;;5029066;28;20128;-66
2022/07/09 12:11:13;;;;;;;9.48;5.30;;;29.50;84.60;;;;;;5045183;28;20042;-65
2022/07/09 12:13:41;;;;;;;8.05;4.85;;;29.40;83.60;;;;;;5029072;28;20049;-69
2022/07/09 12:16:08;;;;;;;9.18;7.15;;;29.10;84.60;;;;;;5029169;28;20059;-66
2022/07/09 12:18:36;;;;;;;9.43;5.88;;;29.00;84.90;;;;;;5030181;28;20045;-66
2022/07/09 12:21:04;;;;;;;10.23;8.40;;;29.00;84.70;;;;;;5030314;28;20504;-67
2022/07/09 12:23:31;;;;;;;18.73;11.55;;;28.90;84.00;;;;;;5028680;28;20041;-66
2022/07/09 12:25:59;;;;;;;9.07;6.88;;;28.80;83.70;;;;;;5030052;28;20041;-67
2022/07/09 12:28:27;;;;;;;11.38;5.20;;;28.80;84.80;;;;;;5028410;28;20042;-66
2022/07/09 12:30:54;;;;;;;12.40;7.00;;;28.80;84.80;;;;;;5029307;28;20066;-67
2022/07/09 12:33:22;;;;;;;6.25;4.60;;;28.90;85.20;;;;;;5030141;28;20061;-67
2022/07/09 12:35:50;;;;;;;14.43;8.90;;;29.00;84.20;;;;;;5045084;28;20417;-67
2022/07/09 12:38:17;;;;;;;9.48;7.43;;;29.00;84.30;;;;;;5028086;28;20045;-67
2022/07/09 12:40:45;;;;;;;57.63;40.55;;;29.20;83.00;;;;;;5027429;28;20045;-66
2022/07/09 12:43:13;;;;;;;24.00;16.98;;;29.20;83.20;;;;;;5029751;28;20049;-68
2022/07/09 12:45:41;;;;;;;29.52;22.58;;;29.10;82.90;;;;;;5023686;28;20049;-67
2022/07/09 12:48:09;;;;;;;36.20;28.17;;;29.10;82.80;;;;;;5021115;28;20071;-66
2022/07/09 12:50:36;;;;;;;47.80;34.08;;;29.00;82.80;;;;;;5031325;28;20049;-68
2022/07/09 12:53:04;;;;;;;14.05;7.97;;;29.00;83.00;;;;;;5033163;28;20570;-66
2022/07/09 12:55:32;;;;;;;5.95;4.10;;;28.90;84.20;;;;;;5023871;28;20052;-67